createdAt,value
2018-04-17T00:47:29.580Z,95695.48
2018-04-17T00:50:02.911Z,95698.57
2018-04-17T00:52:36.980Z,95697.23
2018-04-17T00:55:10.290Z,95695.48
2018-04-17T00:57:43.592Z,95693.23
2018-04-17T02:31:19.676Z,95731.53
2018-04-17T02:33:53.740Z,95732.04
2018-04-17T02:36:27.071Z,95733.56
2018-04-17T02:39:01.139Z,95737.77
2018-04-17T02:41:34.491Z,95742.37
2018-04-17T02:44:07.799Z,95743.60
2018-04-17T03:48:25.487Z,95799.10
2018-04-17T03:50:58.805Z,95795.01
2018-04-17T03:53:32.108Z,95794.31
2018-04-17T03:56:05.440Z,95796.05
2018-04-17T03:58:38.745Z,95795.64
2018-04-17T04:30:54.163Z,95827.83
2018-04-17T04:33:28.234Z,95827.45
2018-04-17T04:36:01.551Z,95837.09
2018-04-17T04:38:34.853Z,95837.23
2018-04-17T04:41:08.208Z,95840.94
2018-04-17T04:43:41.507Z,95830.45
2018-04-17T04:46:14.843Z,95840.82
2018-04-17T04:48:48.912Z,95841.97
2018-04-17T04:51:22.236Z,95842.19
2018-04-17T04:53:55.547Z,95844.53
2018-04-17T04:56:29.629Z,95840.95
2018-04-17T04:59:02.931Z,95844.03
2018-04-17T05:01:36.252Z,95852.84
2018-04-17T05:04:10.323Z,95866.59
2018-04-17T05:06:43.644Z,95875.50
2018-04-17T05:09:16.944Z,95876.92
2018-04-17T05:11:51.037Z,95891.41
2018-04-17T05:14:24.334Z,95896.34
2018-04-17T05:16:57.658Z,95898.95
2018-04-17T05:19:31.723Z,95898.98
2018-04-17T05:22:05.060Z,95901.18
2018-04-17T05:24:39.152Z,95900.56
2018-04-17T05:27:12.481Z,95902.66
2018-04-17T05:29:46.592Z,95905.52
2018-04-17T05:32:20.660Z,95912.13
2018-04-17T05:34:53.995Z,95913.02
2018-04-17T05:37:28.063Z,95914.80
2018-04-17T05:40:01.673Z,95914.02
2018-04-17T05:42:34.976Z,95920.24
2018-04-17T05:45:08.670Z,95917.52
2018-04-17T05:47:41.975Z,95918.06
2018-04-17T05:50:15.325Z,95924.70
2018-04-17T05:52:48.608Z,95930.89
2018-04-17T05:55:21.888Z,95928.77
2018-04-17T05:57:55.924Z,95931.09
2018-04-17T06:00:29.189Z,95931.02
2018-04-17T06:03:02.436Z,95945.22
2018-04-17T06:05:35.716Z,95945.19
2018-04-17T06:08:08.972Z,95948.30
2018-04-17T06:10:42.273Z,95955.51
2018-04-17T06:13:15.519Z,95956.59
2018-04-17T06:15:48.799Z,95954.69
2018-04-17T06:18:22.054Z,95957.29
2018-04-17T06:20:56.085Z,95959.83
2018-04-17T06:23:29.335Z,95958.11
2018-04-17T06:26:02.759Z,95960.84
2018-04-17T06:28:36.026Z,95958.55
2018-04-17T07:00:50.556Z,95996.31
2018-04-17T07:03:23.836Z,96004.41
2018-04-17T07:05:57.089Z,95998.69
2018-04-17T07:08:30.363Z,95999.37
2018-04-17T07:11:04.384Z,95999.81
2018-04-17T07:13:38.416Z,96000.75
2018-04-17T08:01:41.750Z,96039.13
2018-04-17T08:04:15.011Z,96041.14
2018-04-17T08:06:48.275Z,96036.02
2018-04-17T08:09:22.296Z,96033.08
2018-04-17T08:11:55.592Z,96038.45
2018-04-17T08:14:29.614Z,96040.45
2018-04-17T09:02:37.709Z,96089.08
2018-04-17T09:05:11.001Z,96086.19
2018-04-17T09:07:44.265Z,96087.56
2018-04-17T09:10:17.764Z,96092.20
2018-04-17T09:12:51.024Z,96097.48
2018-04-17T10:00:58.684Z,96108.71
2018-04-17T10:03:31.983Z,96104.98
2018-04-17T10:06:05.555Z,96103.39
2018-04-17T10:08:39.579Z,96104.06
2018-04-17T10:11:12.881Z,96104.05
2018-04-17T10:13:46.132Z,96100.81
2018-04-17T11:01:52.554Z,96088.24
2018-04-17T11:04:25.801Z,96085.45
2018-04-17T11:06:59.084Z,96084.86
2018-04-17T11:09:33.128Z,96090.95
2018-04-17T11:12:06.391Z,96088.00
2018-04-17T11:14:40.404Z,96088.38
2018-04-17T12:02:44.207Z,96107.66
2018-04-17T12:05:17.457Z,96110.01
2018-04-17T12:07:50.747Z,96099.44
2018-04-17T12:10:24.037Z,96104.08
2018-04-17T12:12:58.079Z,96108.81
2018-04-17T13:01:03.516Z,96085.78
2018-04-17T13:03:36.978Z,96085.20
2018-04-17T13:06:10.235Z,96085.61
2018-04-17T13:08:43.703Z,96093.07
2018-04-17T13:11:16.967Z,96080.15
2018-04-17T13:13:50.247Z,96083.16
2018-04-17T14:01:54.188Z,96066.58
2018-04-17T14:04:27.478Z,96066.92
2018-04-17T14:07:00.734Z,96070.45
2018-04-17T14:09:34.787Z,96078.41
2018-04-17T14:12:08.043Z,96079.41
2018-04-17T14:14:42.079Z,96076.52
2018-04-17T14:46:33.275Z,96097.16
2018-04-17T14:49:06.540Z,96091.79
2018-04-17T14:51:39.827Z,96087.05
2018-04-17T14:54:13.133Z,96087.72
2018-04-17T14:56:46.407Z,96092.73
2018-04-17T14:59:20.432Z,96092.88
2018-04-17T15:31:10.964Z,96100.06
2018-04-17T15:33:44.995Z,96092.49
2018-04-17T15:36:18.263Z,96094.75
2018-04-17T15:38:51.520Z,96098.39
2018-04-17T15:41:24.785Z,96097.86
2018-04-17T15:43:58.044Z,96097.73
2018-04-17T15:46:31.328Z,96097.20
2018-04-17T15:49:04.580Z,96104.04
2018-04-17T15:51:37.879Z,96099.44
2018-04-17T15:54:11.131Z,96104.73
2018-04-17T15:56:45.198Z,96107.45
2018-04-17T15:59:18.445Z,96115.79
2018-04-17T16:01:52.677Z,96110.62
2018-04-17T16:04:25.942Z,96107.89
2018-04-17T16:06:59.238Z,96114.02
2018-04-17T16:09:32.495Z,96111.84
2018-04-17T16:12:05.767Z,96112.39
2018-04-17T16:14:39.030Z,96112.41
2018-04-17T16:17:13.069Z,96112.66
2018-04-17T16:19:46.315Z,96117.57
2018-04-17T16:22:19.594Z,96120.30
2018-04-17T16:24:52.850Z,96126.59
2018-04-17T16:27:26.126Z,96109.13
2018-04-17T16:29:59.390Z,96124.63
2018-04-17T16:32:32.872Z,96124.09
2018-04-17T16:35:06.121Z,96126.11
2018-04-17T16:37:39.394Z,96125.23
2018-04-17T16:40:13.415Z,96127.13
2018-04-17T16:42:47.457Z,96126.00
2018-04-17T16:45:20.750Z,96123.25
2018-04-17T16:47:54.020Z,96130.20
2018-04-17T16:50:27.287Z,96132.07
2018-04-17T16:53:00.565Z,96127.53
2018-04-17T16:55:33.813Z,96131.48
2018-04-17T16:58:07.153Z,96139.34
2018-04-17T17:00:40.403Z,96142.47
2018-04-17T17:03:13.696Z,96141.44
2018-04-17T17:05:46.949Z,96146.20
2018-04-17T17:08:20.251Z,96146.25
2018-04-17T17:10:53.519Z,96155.16
2018-04-17T17:13:27.564Z,96154.46
2018-04-17T17:16:01.603Z,96159.23
2018-04-17T17:18:34.885Z,96157.96
2018-04-17T17:21:08.164Z,96153.07
2018-04-17T17:23:42.204Z,96166.40
2018-04-17T17:26:15.448Z,96162.44
2018-04-17T17:28:48.719Z,96167.64
2018-04-17T17:31:22.293Z,96171.66
2018-04-17T17:33:55.584Z,96169.34
2018-04-17T17:36:28.831Z,96177.77
2018-04-17T17:39:02.107Z,96176.57
2018-04-17T17:41:35.364Z,96185.23
2018-04-17T17:44:08.642Z,96189.48
2018-04-17T17:46:42.659Z,96189.31
2018-04-17T17:49:15.947Z,96196.74
2018-04-17T17:51:49.196Z,96197.78
2018-04-17T17:54:22.468Z,96196.31
2018-04-17T17:56:55.722Z,96197.53
2018-04-17T17:59:29.759Z,96206.59
2018-04-17T18:02:03.020Z,96215.78
2018-04-17T18:04:37.096Z,96218.60
2018-04-17T18:07:10.364Z,96215.16
2018-04-17T18:09:43.651Z,96220.75
2018-04-17T18:12:16.924Z,96219.16
2018-04-17T18:14:50.194Z,96224.88
2018-04-17T18:17:23.451Z,96231.50
2018-04-17T18:19:56.739Z,96235.36
2018-04-17T18:22:30.002Z,96235.68
2018-04-17T18:25:03.272Z,96240.73
2018-04-17T18:27:36.531Z,96237.61
2018-04-17T18:30:09.809Z,96246.27
2018-04-17T18:32:43.059Z,96248.48
2018-04-17T18:35:16.324Z,96256.53
2018-04-17T18:37:49.589Z,96257.38
2018-04-17T18:40:22.861Z,96258.89
2018-04-17T18:42:56.126Z,96264.14
2018-04-17T18:45:29.406Z,96271.69
2018-04-17T18:48:02.652Z,96277.05
2018-04-17T18:50:35.930Z,96273.01
2018-04-17T18:53:09.951Z,96278.88
2018-04-17T18:55:43.233Z,96281.84
2018-04-17T18:58:17.257Z,96282.39
2018-04-17T19:00:51.443Z,96298.01
2018-04-17T19:03:25.617Z,96293.05
2018-04-17T19:05:59.097Z,96297.05
2018-04-17T19:08:32.360Z,96305.06
2018-04-17T19:11:06.397Z,96307.27
2018-04-17T19:13:39.660Z,96305.03
2018-04-17T19:16:12.940Z,96320.35
2018-04-17T19:18:46.201Z,96319.30
2018-04-17T19:21:19.498Z,96324.67
2018-04-17T19:23:52.741Z,96325.61
2018-04-17T19:26:26.053Z,96324.45
2018-04-17T19:29:00.089Z,96320.45
2018-04-17T19:31:33.364Z,96326.92
2018-04-17T19:34:06.631Z,96328.80
2018-04-17T19:36:40.680Z,96331.44
2018-04-17T19:39:13.970Z,96335.27
2018-04-17T19:41:47.240Z,96332.86
2018-04-17T19:44:21.281Z,96330.20
2018-04-17T19:46:54.548Z,96330.50
2018-04-17T19:49:28.572Z,96335.42
2018-04-17T19:52:01.846Z,96342.17
2018-04-17T19:54:35.885Z,96342.22
2018-04-17T19:57:09.202Z,96349.73
2018-04-17T19:59:42.436Z,96348.20
2018-04-17T20:02:15.709Z,96351.47
2018-04-17T20:04:48.964Z,96344.95
2018-04-17T20:07:22.232Z,96352.64
2018-04-17T20:09:55.492Z,96353.55
2018-04-17T20:12:28.769Z,96359.09
2018-04-17T20:15:02.028Z,96365.89
2018-04-17T20:17:36.067Z,96368.84
2018-04-17T20:20:09.316Z,96371.89
2018-04-17T20:22:43.364Z,96376.42
2018-04-17T20:25:16.616Z,96374.04
2018-04-17T20:27:49.885Z,96374.81
2018-04-17T20:30:23.139Z,96376.49
2018-04-17T20:32:56.420Z,96378.09
2018-04-17T20:35:29.684Z,96378.83
2018-04-17T20:38:02.954Z,96379.71
2018-04-17T20:40:36.215Z,96381.30
2018-04-17T20:43:09.487Z,96386.91
2018-04-17T20:45:43.514Z,96382.99
2018-04-17T20:48:16.789Z,96380.09
2018-04-17T20:50:50.817Z,96377.75
2018-04-17T20:53:24.101Z,96378.48
2018-04-17T20:55:58.113Z,96381.11
2018-04-17T20:58:32.153Z,96370.89
2018-04-17T21:01:05.421Z,96376.72
2018-04-17T21:03:39.460Z,96383.75
2018-04-17T21:06:12.743Z,96385.31
2018-04-17T21:08:46.058Z,96383.66
2018-04-17T21:11:19.312Z,96384.19
